createdAt,value
2019-05-14T00:01:06.097Z,101009.41
2019-05-14T00:03:36.516Z,101009.17
2019-05-14T00:06:06.977Z,101011.41
2019-05-14T00:08:37.408Z,101015.91
2019-05-14T00:11:07.959Z,101009.80
2019-05-14T00:13:38.382Z,101007.83
2019-05-14T00:16:08.877Z,101011.88
2019-05-14T00:18:39.226Z,101013.01
2019-05-14T00:21:12.026Z,101015.14
2019-05-14T00:23:42.156Z,101016.11
2019-05-14T00:26:12.721Z,101012.05
2019-05-14T00:28:43.131Z,101013.53
2019-05-14T00:31:13.587Z,101014.78
2019-05-14T00:33:44.876Z,101013.25
2019-05-14T00:36:15.357Z,101009.72
2019-05-14T00:38:45.996Z,101006.83
2019-05-14T00:41:16.551Z,101006.98
2019-05-14T00:43:46.979Z,101008.73
2019-05-14T00:46:17.469Z,101010.50
2019-05-14T00:48:47.904Z,101011.95
2019-05-14T00:51:18.392Z,101012.39
2019-05-14T00:53:48.797Z,101007.25
2019-05-14T00:56:21.447Z,101007.30
2019-05-14T00:58:52.126Z,101001.93
2019-05-14T01:01:22.841Z,101002.95
2019-05-14T01:03:53.268Z,101003.97
2019-05-14T01:06:23.761Z,101005.78
2019-05-14T01:08:54.205Z,101006.83
2019-05-14T01:11:24.705Z,101006.75
2019-05-14T01:13:55.127Z,101010.44
2019-05-14T01:16:25.639Z,101014.97
2019-05-14T01:18:56.079Z,101012.89
2019-05-14T01:21:26.585Z,101017.61
2019-05-14T01:23:57.039Z,101012.55
2019-05-14T01:26:27.531Z,101014.98
2019-05-14T01:28:57.957Z,101016.59
2019-05-14T01:31:28.444Z,101015.75
2019-05-14T01:34:01.989Z,101017.19
2019-05-14T01:36:32.143Z,101013.01
2019-05-14T01:39:02.833Z,101014.83
2019-05-14T01:41:33.399Z,101016.10
2019-05-14T01:44:03.809Z,101011.38
2019-05-14T01:46:34.304Z,101021.08
2019-05-14T01:49:04.723Z,101015.94
2019-05-14T01:51:35.203Z,101021.62
2019-05-14T01:54:05.611Z,101023.75
2019-05-14T01:56:36.084Z,101016.10
2019-05-14T01:59:06.526Z,101019.08
2019-05-14T02:01:37.021Z,101022.26
2019-05-14T02:04:07.459Z,101020.69
2019-05-14T02:06:37.952Z,101021.23
2019-05-14T02:09:08.501Z,101020.11
2019-05-14T02:11:41.292Z,101014.87
2019-05-14T02:14:11.760Z,101018.85
2019-05-14T02:16:42.467Z,101021.25
2019-05-14T02:19:12.895Z,101013.55
2019-05-14T02:21:43.415Z,101018.27
2019-05-14T02:24:13.796Z,101011.52
2019-05-14T02:26:44.369Z,101011.33
2019-05-14T02:29:14.823Z,101015.58
2019-05-14T02:31:45.302Z,101007.59
2019-05-14T02:34:19.569Z,101006.55
2019-05-14T02:36:49.708Z,101003.97
2019-05-14T02:39:20.148Z,101001.57
2019-05-14T02:41:50.764Z,101002.84
2019-05-14T02:44:21.213Z,101002.84
2019-05-14T02:46:51.742Z,101000.95
2019-05-14T02:49:22.201Z,101003.05
2019-05-14T02:51:53.712Z,100989.67
2019-05-14T02:54:25.206Z,100998.63
2019-05-14T02:56:55.700Z,100997.52
2019-05-14T02:59:26.285Z,100997.14
2019-05-14T03:01:59.161Z,100988.78
2019-05-14T03:04:30.190Z,100995.55
2019-05-14T03:07:01.076Z,100988.48
2019-05-14T03:09:31.663Z,100994.11
2019-05-14T03:12:02.192Z,100991.73
2019-05-14T03:14:32.772Z,100985.81
2019-05-14T03:17:03.280Z,100987.48
2019-05-14T03:19:33.780Z,100990.97
2019-05-14T03:22:04.309Z,100989.99
2019-05-14T03:24:34.798Z,100993.08
2019-05-14T03:27:05.546Z,100988.28
2019-05-14T03:29:39.440Z,100986.41
2019-05-14T03:32:12.739Z,100989.27
2019-05-14T03:34:43.869Z,100985.69
2019-05-14T03:37:14.322Z,100988.27
2019-05-14T03:39:45.070Z,100989.64
2019-05-14T03:42:19.031Z,100987.30
2019-05-14T03:44:49.052Z,100987.11
2019-05-14T03:47:19.906Z,100988.61
2019-05-14T03:49:50.378Z,100984.95
2019-05-14T03:52:20.886Z,100985.59
2019-05-14T03:54:51.356Z,100982.72
2019-05-14T03:57:21.860Z,100990.82
2019-05-14T03:59:52.327Z,100987.82
2019-05-14T04:02:23.266Z,100992.89
2019-05-14T04:04:53.801Z,100991.39
2019-05-14T04:07:25.905Z,100989.39
2019-05-14T04:09:59.490Z,100993.89
2019-05-14T04:12:31.754Z,100995.91
2019-05-14T04:15:04.295Z,100995.52
2019-05-14T04:17:38.814Z,100991.70
2019-05-14T04:20:09.717Z,100993.42
2019-05-14T04:22:41.271Z,100992.13
2019-05-14T04:25:11.750Z,100992.48
2019-05-14T04:27:43.869Z,100987.50
2019-05-14T04:30:18.608Z,100991.62
2019-05-14T04:32:50.464Z,100992.38
2019-05-14T04:35:22.014Z,100990.48
2019-05-14T04:37:52.574Z,100984.06
2019-05-14T04:40:23.030Z,100987.99
2019-05-14T04:42:53.616Z,100988.14
2019-05-14T04:45:24.066Z,100996.45
2019-05-14T04:47:54.586Z,100993.88
2019-05-14T04:50:25.757Z,100993.27
2019-05-14T04:52:59.642Z,100983.17
2019-05-14T04:55:29.666Z,100986.97
2019-05-14T04:58:00.345Z,100989.47
2019-05-14T05:00:30.889Z,100994.31
2019-05-14T05:03:01.461Z,100987.52
2019-05-14T05:05:31.938Z,100987.69
2019-05-14T05:08:02.498Z,100987.39
2019-05-14T05:10:32.939Z,100992.41
2019-05-14T05:13:03.423Z,100987.52
2019-05-14T05:15:33.853Z,100981.23
2019-05-14T05:18:04.325Z,100983.84
2019-05-14T05:20:35.473Z,100986.63
2019-05-14T05:23:08.388Z,100984.69
2019-05-14T05:25:38.521Z,100986.67
2019-05-14T05:28:08.969Z,100989.77
2019-05-14T05:30:39.400Z,100991.84
2019-05-14T05:33:09.876Z,100985.27
2019-05-14T05:35:42.381Z,100991.64
2019-05-14T05:38:12.995Z,100991.34
2019-05-14T05:40:43.429Z,100986.88
2019-05-14T05:43:13.983Z,100991.34
2019-05-14T05:45:44.388Z,100991.95
2019-05-14T05:48:14.931Z,100990.31
2019-05-14T05:50:45.349Z,100997.81
2019-05-14T05:53:15.749Z,100990.63
2019-05-14T05:55:48.317Z,100998.66
2019-05-14T05:58:19.672Z,100996.70
2019-05-14T06:00:50.235Z,100997.23
2019-05-14T06:03:21.163Z,100995.28
2019-05-14T06:05:51.610Z,100993.26
2019-05-14T06:08:22.121Z,100997.08
2019-05-14T06:10:52.549Z,100998.55
2019-05-14T06:13:23.029Z,100990.77
2019-05-14T06:15:53.468Z,100988.59
2019-05-14T06:18:23.945Z,100984.07
2019-05-14T06:20:54.378Z,100985.64
2019-05-14T06:23:24.864Z,100986.21
2019-05-14T06:25:55.256Z,100988.25
2019-05-14T06:28:32.197Z,100990.20
2019-05-14T06:30:58.917Z,100981.73
2019-05-14T06:33:29.602Z,100988.30
2019-05-14T06:36:00.889Z,100988.77
2019-05-14T06:38:31.384Z,100984.89
2019-05-14T06:41:01.799Z,100990.08
2019-05-14T06:43:32.425Z,100988.34
2019-05-14T06:46:02.850Z,100987.75
2019-05-14T06:48:34.814Z,100989.83
2019-05-14T06:51:08.784Z,100992.45
2019-05-14T06:53:39.499Z,100988.45
2019-05-14T06:56:09.943Z,100989.59
2019-05-14T06:58:40.429Z,100986.06
2019-05-14T07:01:10.846Z,100986.14
2019-05-14T07:03:41.340Z,100979.34
2019-05-14T07:06:11.772Z,100981.55
2019-05-14T07:08:42.277Z,100986.87
2019-05-14T07:11:12.742Z,100980.66
2019-05-14T07:13:43.225Z,100988.57
2019-05-14T07:16:13.690Z,100985.34
2019-05-14T07:18:49.233Z,100985.75
2019-05-14T07:21:18.633Z,100973.20
2019-05-14T07:23:49.866Z,100968.34
2019-05-14T07:26:20.312Z,100968.91
2019-05-14T07:28:50.975Z,100959.09
2019-05-14T07:31:21.515Z,100957.55
2019-05-14T07:33:58.281Z,100953.08
2019-05-14T07:36:29.887Z,100949.05
2019-05-14T07:39:00.566Z,100941.67
2019-05-14T07:41:31.533Z,100945.45
2019-05-14T07:44:02.487Z,100942.70
2019-05-14T07:46:33.302Z,100942.69
2019-05-14T07:49:09.307Z,100938.58
2019-05-14T07:51:38.774Z,100938.17
2019-05-14T07:54:09.481Z,100939.30
2019-05-14T07:56:39.949Z,100941.87
2019-05-14T07:59:10.459Z,100945.19
2019-05-14T08:01:43.185Z,100939.45
2019-05-14T08:04:13.697Z,100941.37
2019-05-14T08:06:44.595Z,100943.62
2019-05-14T08:09:15.958Z,100936.37
2019-05-14T08:11:48.034Z,100931.78
2019-05-14T08:14:18.693Z,100926.39
2019-05-14T08:16:49.129Z,100937.03
2019-05-14T08:19:26.502Z,100926.67
2019-05-14T08:21:51.868Z,100922.10
2019-05-14T08:24:27.042Z,100929.61
2019-05-14T08:27:00.853Z,100926.05
2019-05-14T08:29:31.327Z,100927.44
2019-05-14T08:32:01.766Z,100922.88
2019-05-14T08:34:32.937Z,100918.34
2019-05-14T08:37:05.416Z,100925.55
2019-05-14T08:39:35.947Z,100928.91
2019-05-14T08:42:08.578Z,100924.27
2019-05-14T08:44:39.236Z,100931.93
2019-05-14T08:47:12.201Z,100922.91
2019-05-14T08:49:46.529Z,100929.38
2019-05-14T08:52:16.166Z,100928.35
2019-05-14T08:54:50.584Z,100929.52
2019-05-14T08:57:20.053Z,100925.17
2019-05-14T08:59:50.600Z,100918.89
2019-05-14T09:02:21.471Z,100912.59
2019-05-14T09:05:04.194Z,100916.33
2019-05-14T09:07:34.208Z,100912.23
2019-05-14T09:10:09.932Z,100908.56
2019-05-14T09:12:40.374Z,100917.69
2019-05-14T09:15:11.395Z,100909.91
2019-05-14T09:17:41.849Z,100916.03
2019-05-14T09:20:13.216Z,100912.09
2019-05-14T09:22:43.654Z,100909.71
2019-05-14T09:25:14.343Z,100908.09
2019-05-14T09:27:45.613Z,100900.03
2019-05-14T09:30:18.366Z,100893.19
2019-05-14T09:33:14.503Z,100898.16
2019-05-14T09:36:09.656Z,100893.44
2019-05-14T09:38:29.544Z,100887.98
2019-05-14T09:41:11.228Z,100888.47
2019-05-14T09:43:35.166Z,100892.14
2019-05-14T09:46:05.817Z,100887.35
2019-05-14T09:48:38.040Z,100893.86
2019-05-14T09:51:09.284Z,100896.16
2019-05-14T09:53:41.379Z,100892.98
2019-05-14T09:56:11.885Z,100897.04
2019-05-14T09:58:42.363Z,100898.20
2019-05-14T10:01:12.841Z,100898.63
2019-05-14T10:03:43.274Z,100895.11
2019-05-14T10:06:14.152Z,100895.00
2019-05-14T10:08:44.596Z,100902.19
2019-05-14T10:11:15.008Z,100898.48
2019-05-14T10:13:45.342Z,100895.66
2019-05-14T10:16:18.596Z,100900.48
2019-05-14T10:18:49.037Z,100891.67
2019-05-14T10:21:20.159Z,100889.73
2019-05-14T10:23:50.595Z,100887.87
2019-05-14T10:26:22.518Z,100883.61
2019-05-14T10:28:52.978Z,100880.33
2019-05-14T10:31:25.891Z,100881.22
2019-05-14T10:33:58.980Z,100878.40
2019-05-14T10:36:30.241Z,100885.35
2019-05-14T10:39:04.910Z,100881.20
2019-05-14T10:41:39.980Z,100879.88
2019-05-14T10:44:10.477Z,100882.50
2019-05-14T10:46:58.313Z,100877.17
2019-05-14T10:49:29.915Z,100876.75
2019-05-14T10:52:00.685Z,100880.59
2019-05-14T10:54:32.664Z,100882.08
2019-05-14T10:57:20.827Z,100892.81
2019-05-14T10:59:53.266Z,100890.13
2019-05-14T11:02:24.286Z,100887.59
2019-05-14T11:04:55.304Z,100887.63
2019-05-14T11:07:26.185Z,100884.12
2019-05-14T11:09:57.019Z,100889.62
2019-05-14T11:12:29.686Z,100873.38
2019-05-14T11:15:00.427Z,100879.90
2019-05-14T11:17:31.516Z,100886.54
2019-05-14T11:20:19.289Z,100880.21
2019-05-14T11:22:58.318Z,100886.88
2019-05-14T11:25:28.880Z,100882.04
2019-05-14T11:28:00.278Z,100885.09
2019-05-14T11:30:31.113Z,100887.55
2019-05-14T11:33:01.655Z,100887.28
2019-05-14T11:35:32.555Z,100884.39
2019-05-14T11:38:03.029Z,100878.06
2019-05-14T11:40:38.649Z,100881.53
2019-05-14T11:43:10.148Z,100875.80
2019-05-14T11:45:43.050Z,100882.83
2019-05-14T11:48:15.115Z,100878.61
2019-05-14T11:50:49.176Z,100876.53
2019-05-14T11:53:20.358Z,100867.30
2019-05-14T11:55:52.711Z,100865.88
2019-05-14T11:58:23.762Z,100866.04
2019-05-14T12:00:54.172Z,100865.98
2019-05-14T12:03:24.708Z,100861.53
2019-05-14T12:05:55.227Z,100870.27
2019-05-14T12:08:25.797Z,100875.97
2019-05-14T12:10:56.230Z,100875.46
2019-05-14T12:13:30.062Z,100869.87
2019-05-14T12:15:59.259Z,100864.91
2019-05-14T12:18:29.738Z,100858.25
2019-05-14T12:21:00.494Z,100852.24
2019-05-14T12:23:30.982Z,100857.20
2019-05-14T12:26:01.381Z,100857.34
2019-05-14T12:28:32.341Z,100854.10
2019-05-14T12:31:02.922Z,100851.38
2019-05-14T12:33:33.628Z,100848.28
2019-05-14T12:36:04.469Z,100842.38
2019-05-14T12:38:34.950Z,100834.41
2019-05-14T12:41:09.261Z,100836.45
2019-05-14T12:43:43.696Z,100838.62
2019-05-14T12:46:13.791Z,100840.87
2019-05-14T12:48:44.511Z,100837.96
2019-05-14T12:51:15.179Z,100842.44
2019-05-14T12:53:48.686Z,100841.17
2019-05-14T12:56:22.397Z,100833.65
2019-05-14T12:58:55.115Z,100836.34
2019-05-14T13:01:26.508Z,100830.28
2019-05-14T13:03:59.410Z,100836.44
2019-05-14T13:06:31.498Z,100834.53
2019-05-14T13:09:06.010Z,100833.30
2019-05-14T13:11:41.747Z,100831.67
2019-05-14T13:14:19.334Z,100833.13
2019-05-14T13:16:59.812Z,100839.14
2019-05-14T13:19:34.761Z,100833.87
2019-05-14T13:22:14.267Z,100828.12
2019-05-14T13:24:43.374Z,100825.84
2019-05-14T13:27:15.252Z,100825.90
2019-05-14T13:29:48.537Z,100823.63
2019-05-14T13:32:19.641Z,100821.98
2019-05-14T13:34:54.199Z,100829.11
2019-05-14T13:37:33.013Z,100823.84
2019-05-14T13:40:09.176Z,100832.72
2019-05-14T13:42:44.301Z,100830.02
2019-05-14T13:45:14.114Z,100823.76
2019-05-14T13:47:44.579Z,100815.92
2019-05-14T13:50:15.713Z,100818.33
2019-05-14T13:52:59.769Z,100814.00
2019-05-14T13:55:21.376Z,100815.63
2019-05-14T13:57:52.361Z,100818.21
2019-05-14T14:00:23.606Z,100813.61
2019-05-14T14:02:58.797Z,100822.94
2019-05-14T14:05:28.910Z,100811.98
2019-05-14T14:07:59.812Z,100814.33
2019-05-14T14:10:35.850Z,100816.73
2019-05-14T14:13:06.419Z,100813.65
2019-05-14T14:15:35.171Z,100813.05
2019-05-14T14:18:06.796Z,100810.07
2019-05-14T14:20:40.177Z,100811.02
2019-05-14T14:23:21.745Z,100816.73
2019-05-14T14:25:43.885Z,100818.17
2019-05-14T14:28:14.501Z,100817.42
2019-05-14T14:30:45.013Z,100810.31
2019-05-14T14:33:18.280Z,100809.19
2019-05-14T14:35:48.773Z,100802.53
2019-05-14T14:38:20.125Z,100805.78
2019-05-14T14:40:50.837Z,100807.67
2019-05-14T14:43:22.226Z,100811.66
2019-05-14T14:45:53.224Z,100814.40
2019-05-14T14:48:30.312Z,100813.88
2019-05-14T14:50:59.971Z,100811.72
2019-05-14T14:53:43.084Z,100817.09
2019-05-14T14:56:03.305Z,100816.52
2019-05-14T14:58:34.630Z,100815.39
2019-05-14T15:01:05.141Z,100818.48
2019-05-14T15:03:36.309Z,100820.84
2019-05-14T15:06:09.701Z,100822.33
2019-05-14T15:08:40.418Z,100824.00
2019-05-14T15:11:10.924Z,100828.41
2019-05-14T15:13:41.403Z,100822.91
2019-05-14T15:16:14.158Z,100822.69
2019-05-14T15:18:44.771Z,100827.78
2019-05-14T15:21:15.281Z,100824.86
2019-05-14T15:24:02.988Z,100822.63
2019-05-14T15:26:20.159Z,100827.69
2019-05-14T15:28:50.656Z,100841.28
2019-05-14T15:31:21.280Z,100837.77
2019-05-14T15:33:51.765Z,100834.59
2019-05-14T15:36:22.277Z,100824.73
2019-05-14T15:38:52.759Z,100825.55
2019-05-14T15:41:25.259Z,100826.70
2019-05-14T15:43:59.809Z,100828.25
2019-05-14T15:46:32.772Z,100832.05
2019-05-14T15:49:09.034Z,100834.86
2019-05-14T15:51:43.963Z,100843.09
2019-05-14T15:54:36.149Z,100841.63
2019-05-14T15:56:53.802Z,100840.50
2019-05-14T15:59:30.328Z,100837.93
2019-05-14T16:02:09.413Z,100844.58
2019-05-14T16:04:43.780Z,100844.97
2019-05-14T16:07:18.578Z,100840.63
2019-05-14T16:09:50.172Z,100836.69
2019-05-14T16:12:22.278Z,100836.13
2019-05-14T16:14:55.183Z,100835.83
2019-05-14T16:17:30.430Z,100839.78
2019-05-14T16:20:04.066Z,100843.17
2019-05-14T16:22:39.981Z,100840.00
2019-05-14T16:25:12.968Z,100846.98
2019-05-14T16:27:48.660Z,100843.23
2019-05-14T16:30:28.653Z,100837.14
2019-05-14T16:33:01.917Z,100843.49
2019-05-14T16:35:34.661Z,100848.26
2019-05-14T16:38:08.370Z,100845.18
2019-05-14T16:40:39.763Z,100837.27
2019-05-14T16:43:10.307Z,100838.00
2019-05-14T16:45:41.624Z,100840.22
2019-05-14T16:48:12.340Z,100837.22
2019-05-14T16:50:42.793Z,100839.66
2019-05-14T16:53:15.006Z,100840.89
2019-05-14T16:55:45.479Z,100849.49
2019-05-14T16:58:19.195Z,100852.58
2019-05-14T17:00:48.274Z,100851.63
2019-05-14T17:03:19.241Z,100852.62
2019-05-14T17:05:50.367Z,100857.36
2019-05-14T17:08:20.876Z,100862.52
2019-05-14T17:10:51.327Z,100866.80
2019-05-14T17:13:21.834Z,100861.73
2019-05-14T17:15:52.309Z,100862.01
2019-05-14T17:18:22.764Z,100869.53
2019-05-14T17:20:53.241Z,100867.16
2019-05-14T17:23:23.747Z,100871.61
2019-05-14T17:25:54.222Z,100871.39
2019-05-14T17:28:24.752Z,100878.61
2019-05-14T17:30:55.220Z,100880.98
2019-05-14T17:33:25.741Z,100887.42
2019-05-14T17:35:58.529Z,100881.36
2019-05-14T17:38:29.222Z,100884.69
2019-05-14T17:41:00.158Z,100884.08
2019-05-14T17:43:30.703Z,100886.89
2019-05-14T17:46:02.180Z,100887.21
2019-05-14T17:48:32.702Z,100885.89
2019-05-14T17:51:03.202Z,100891.97
2019-05-14T17:53:33.803Z,100894.79
2019-05-14T17:56:08.414Z,100894.27
2019-05-14T17:58:38.639Z,100896.80
2019-05-14T18:01:09.269Z,100891.02
2019-05-14T18:03:40.301Z,100891.02
2019-05-14T18:06:10.881Z,100886.88
2019-05-14T18:08:41.382Z,100894.05
2019-05-14T18:11:11.994Z,100892.70
2019-05-14T18:13:42.518Z,100900.74
2019-05-14T18:16:12.995Z,100897.69
2019-05-14T18:18:44.610Z,100893.27
2019-05-14T18:21:15.086Z,100893.57
2019-05-14T18:23:45.616Z,100892.18
2019-05-14T18:26:16.100Z,100896.34
2019-05-14T18:28:46.610Z,100887.22
2019-05-14T18:31:20.397Z,100891.08
2019-05-14T18:33:49.619Z,100890.78
2019-05-14T18:36:21.699Z,100893.00
2019-05-14T18:38:52.228Z,100891.06
2019-05-14T18:41:22.672Z,100889.97
2019-05-14T18:43:53.182Z,100896.08
2019-05-14T18:46:24.484Z,100894.94
2019-05-14T18:48:54.988Z,100899.62
2019-05-14T18:51:25.435Z,100900.16
2019-05-14T18:53:58.300Z,100904.59
2019-05-14T18:56:29.297Z,100903.99
2019-05-14T18:58:59.937Z,100896.78
2019-05-14T19:01:30.429Z,100899.79
2019-05-14T19:04:00.889Z,100901.97
2019-05-14T19:06:31.338Z,100897.19
2019-05-14T19:09:01.849Z,100896.33
2019-05-14T19:11:32.198Z,100901.82
2019-05-14T19:14:02.715Z,100895.74
2019-05-14T19:16:33.462Z,100894.16
2019-05-14T19:19:03.986Z,100890.80
2019-05-14T19:21:34.433Z,100889.12
2019-05-14T19:24:04.905Z,100876.73
2019-05-14T19:26:37.774Z,100891.08
2019-05-14T19:29:08.663Z,100889.66
2019-05-14T19:31:39.239Z,100893.23
2019-05-14T19:34:09.713Z,100895.40
2019-05-14T19:36:40.171Z,100890.98
2019-05-14T19:39:10.659Z,100893.20
2019-05-14T19:41:41.018Z,100889.05
2019-05-14T19:44:12.546Z,100886.57
2019-05-14T19:46:43.101Z,100888.51
2019-05-14T19:49:13.606Z,100886.84
2019-05-14T19:51:44.052Z,100886.39
2019-05-14T19:54:14.624Z,100892.72
2019-05-14T19:56:53.246Z,100886.32
2019-05-14T19:59:18.337Z,100885.77
2019-05-14T20:01:48.754Z,100882.67
2019-05-14T20:04:19.377Z,100886.50
2019-05-14T20:06:49.800Z,100888.17
2019-05-14T20:09:20.276Z,100887.34
2019-05-14T20:11:50.730Z,100882.82
2019-05-14T20:14:21.226Z,100885.27
2019-05-14T20:16:51.695Z,100882.48
2019-05-14T20:19:22.173Z,100874.73
2019-05-14T20:21:52.625Z,100874.97
2019-05-14T20:24:23.095Z,100876.06
2019-05-14T20:27:05.717Z,100875.47
2019-05-14T20:29:25.695Z,100875.50
2019-05-14T20:31:56.125Z,100879.55
2019-05-14T20:34:28.565Z,100884.06
2019-05-14T20:36:58.887Z,100882.27
2019-05-14T20:39:31.634Z,100890.77
2019-05-14T20:42:01.544Z,100894.05
2019-05-14T20:44:32.032Z,100893.65
2019-05-14T20:47:03.312Z,100888.36
2019-05-14T20:49:33.792Z,100884.79
2019-05-14T20:52:04.213Z,100886.69
2019-05-14T20:54:34.775Z,100890.70
2019-05-14T20:57:19.726Z,100888.47
2019-05-14T20:59:38.946Z,100890.09
2019-05-14T21:02:09.440Z,100887.66
2019-05-14T21:04:39.830Z,100886.61
2019-05-14T21:07:10.261Z,100881.88
2019-05-14T21:09:40.659Z,100886.67
2019-05-14T21:12:11.098Z,100880.68
2019-05-14T21:14:41.629Z,100878.92
2019-05-14T21:17:12.077Z,100889.67
2019-05-14T21:19:42.580Z,100888.37
2019-05-14T21:22:12.992Z,100897.28
2019-05-14T21:24:43.385Z,100891.13
2019-05-14T21:27:13.813Z,100892.39
2019-05-14T21:29:44.283Z,100892.99
2019-05-14T21:32:14.640Z,100895.19
2019-05-14T21:34:45.025Z,100898.80
2019-05-14T21:37:15.451Z,100898.76
2019-05-14T21:39:45.924Z,100899.35
2019-05-14T21:42:19.274Z,100900.81
2019-05-14T21:44:51.442Z,100893.68
2019-05-14T21:47:21.424Z,100890.33
2019-05-14T21:49:51.903Z,100892.16
2019-05-14T21:52:22.325Z,100889.28
2019-05-14T21:54:52.882Z,100891.77
2019-05-14T21:57:23.315Z,100885.32
2019-05-14T21:59:53.808Z,100887.66
2019-05-14T22:02:27.431Z,100887.83
2019-05-14T22:04:58.257Z,100870.58
2019-05-14T22:07:28.550Z,100871.95
2019-05-14T22:09:59.045Z,100873.63
2019-05-14T22:12:29.477Z,100872.21
2019-05-14T22:14:59.976Z,100874.53
2019-05-14T22:17:30.420Z,100876.20
2019-05-14T22:20:01.090Z,100873.18
2019-05-14T22:22:31.534Z,100871.16
2019-05-14T22:25:02.008Z,100866.15
2019-05-14T22:27:32.437Z,100873.64
2019-05-14T22:30:03.414Z,100870.19
2019-05-14T22:32:33.856Z,100873.64
2019-05-14T22:35:08.595Z,100876.39
2019-05-14T22:37:39.086Z,100875.52
2019-05-14T22:40:09.781Z,100874.97
2019-05-14T22:42:40.250Z,100874.16
2019-05-14T22:45:11.025Z,100870.55
2019-05-14T22:47:42.318Z,100873.18
2019-05-14T22:50:12.805Z,100875.62
2019-05-14T22:52:43.251Z,100865.84
2019-05-14T22:55:13.790Z,100871.39
2019-05-14T23:34:33.196Z,100867.55
2019-05-14T23:47:14.550Z,100870.11
2019-05-14T23:49:53.615Z,100868.95
2019-05-14T23:52:44.059Z,100867.83
2019-05-14T23:55:38.369Z,100873.78
2019-05-14T23:59:03.509Z,100866.72
